createdAt,value
2022-10-04T00:00:26.181Z,100.00
2022-10-04T00:03:00.882Z,100.00
2022-10-04T00:05:31.545Z,100.00
2022-10-04T00:08:04.280Z,100.00
2022-10-04T00:10:35.559Z,100.00
2022-10-04T00:13:16.625Z,100.00
2022-10-04T00:15:50.210Z,100.00
2022-10-04T00:18:29.786Z,100.00
2022-10-04T00:21:01.596Z,100.00
2022-10-04T00:23:43.307Z,100.00
2022-10-04T00:26:36.852Z,100.00
2022-10-04T00:29:38.081Z,100.00
2022-10-04T00:32:12.394Z,100.00
2022-10-04T00:34:49.904Z,100.00
2022-10-04T00:37:20.486Z,100.00
2022-10-04T00:40:04.153Z,100.00
2022-10-04T00:42:42.921Z,100.00
2022-10-04T00:45:29.494Z,100.00
2022-10-04T00:48:17.421Z,100.00
2022-10-04T00:51:00.084Z,100.00
2022-10-04T00:54:06.950Z,100.00
2022-10-04T00:56:52.437Z,100.00
2022-10-04T00:59:28.530Z,100.00
2022-10-04T01:02:22.617Z,100.00
2022-10-04T01:05:11.886Z,100.00
2022-10-04T01:07:54.178Z,100.00
2022-10-04T01:10:39.392Z,100.00
2022-10-04T01:13:29.676Z,100.00
2022-10-04T01:16:05.913Z,100.00
2022-10-04T01:18:36.308Z,100.00
2022-10-04T01:21:08.908Z,100.00
2022-10-04T01:23:45.052Z,100.00
2022-10-04T01:26:31.504Z,100.00
2022-10-04T01:29:10.856Z,100.00
2022-10-04T01:31:47.814Z,100.00
2022-10-04T01:34:25.173Z,100.00
2022-10-04T01:36:56.675Z,100.00
2022-10-04T01:39:27.389Z,100.00
2022-10-04T01:42:03.237Z,100.00
2022-10-04T01:44:39.098Z,100.00
2022-10-04T01:47:15.268Z,100.00
2022-10-04T01:49:46.791Z,100.00
2022-10-04T01:52:33.292Z,100.00
2022-10-04T01:55:10.017Z,100.00
2022-10-04T01:57:55.977Z,100.00
2022-10-04T02:00:25.792Z,100.00
2022-10-04T02:03:06.251Z,100.00
2022-10-04T02:05:39.823Z,100.00
2022-10-04T02:08:17.322Z,100.00
2022-10-04T02:10:50.824Z,100.00
2022-10-04T02:13:20.197Z,100.00
2022-10-04T02:15:51.007Z,100.00
2022-10-04T02:18:22.761Z,100.00
2022-10-04T02:20:52.853Z,100.00
2022-10-04T02:23:24.258Z,100.00
2022-10-04T02:25:53.103Z,100.00
2022-10-04T02:28:21.745Z,100.00
2022-10-04T02:31:11.898Z,100.00
2022-10-04T02:33:43.490Z,100.00
2022-10-04T02:36:12.905Z,100.00
2022-10-04T02:39:24.405Z,100.00
2022-10-04T02:42:00.483Z,100.00
2022-10-04T02:44:42.402Z,100.00
2022-10-04T02:47:31.327Z,100.00
2022-10-04T02:50:07.247Z,100.00
2022-10-04T02:52:51.435Z,100.00
2022-10-04T02:55:25.603Z,100.00
2022-10-04T02:57:54.908Z,100.00
2022-10-04T03:00:32.715Z,100.00
2022-10-04T03:03:31.762Z,100.00
2022-10-04T03:06:10.733Z,100.00
2022-10-04T03:08:45.213Z,100.00
2022-10-04T03:11:17.019Z,100.00
2022-10-04T03:13:52.175Z,99.61
2022-10-04T03:16:21.965Z,100.00
2022-10-04T03:18:53.150Z,99.34
2022-10-04T03:21:24.465Z,99.75
2022-10-04T03:23:54.668Z,100.00
2022-10-04T03:26:34.044Z,100.00
2022-10-04T03:29:03.314Z,100.00
2022-10-04T03:31:33.648Z,99.79
2022-10-04T03:34:02.239Z,100.00
2022-10-04T03:36:31.448Z,100.00
2022-10-04T03:39:01.003Z,98.84
2022-10-04T03:41:32.396Z,99.78
2022-10-04T03:44:04.882Z,100.00
2022-10-04T03:46:33.982Z,99.48
2022-10-04T03:49:03.137Z,99.34
2022-10-04T03:51:31.949Z,100.00
2022-10-04T03:54:03.724Z,99.89
2022-10-04T03:56:37.925Z,100.00
2022-10-04T03:59:07.807Z,99.50
2022-10-04T04:01:36.315Z,100.00
2022-10-04T04:04:19.596Z,100.00
2022-10-04T04:07:03.463Z,100.00
2022-10-04T04:09:31.830Z,99.62
2022-10-04T04:12:03.338Z,100.00
2022-10-04T04:14:31.822Z,98.75
2022-10-04T04:17:40.187Z,98.11
2022-10-04T04:20:18.795Z,97.67
2022-10-04T04:23:24.510Z,97.72
2022-10-04T04:25:56.914Z,98.07
2022-10-04T04:28:35.513Z,97.11
2022-10-04T04:31:29.675Z,98.16
2022-10-04T04:34:01.565Z,95.19
2022-10-04T04:36:42.362Z,96.15
2022-10-04T04:39:37.628Z,96.28
2022-10-04T04:42:09.034Z,96.18
2022-10-04T04:44:40.515Z,95.83
2022-10-04T04:47:26.691Z,95.33
2022-10-04T04:49:57.915Z,94.58
2022-10-04T04:52:30.059Z,95.65
2022-10-04T04:54:59.032Z,95.40
2022-10-04T04:57:27.774Z,94.88
2022-10-04T05:00:01.747Z,95.11
2022-10-04T05:02:36.690Z,95.71
2022-10-04T05:05:25.401Z,96.28
2022-10-04T05:08:11.994Z,96.93
2022-10-04T05:11:02.591Z,96.04
2022-10-04T05:13:49.401Z,96.44
2022-10-04T05:16:24.633Z,96.44
2022-10-04T05:19:00.633Z,97.11
2022-10-04T05:21:36.871Z,96.24
2022-10-04T05:24:18.980Z,97.48
2022-10-04T05:26:52.542Z,97.42
2022-10-04T05:29:25.224Z,97.06
2022-10-04T05:32:30.219Z,96.75
2022-10-04T05:35:00.451Z,95.58
2022-10-04T05:37:50.034Z,95.88
2022-10-04T05:40:57.787Z,95.54
2022-10-04T05:43:38.294Z,94.67
2022-10-04T05:46:21.271Z,94.28
2022-10-04T05:48:58.306Z,94.74
2022-10-04T05:51:31.314Z,93.74
2022-10-04T05:54:03.156Z,93.45
2022-10-04T05:56:57.832Z,94.08
2022-10-04T05:59:38.324Z,92.79
2022-10-04T06:02:26.241Z,93.11
2022-10-04T06:05:14.112Z,93.65
2022-10-04T06:08:13.089Z,93.56
2022-10-04T06:10:56.238Z,91.89
2022-10-04T06:14:00.333Z,94.02
2022-10-04T06:17:00.515Z,93.05
2022-10-04T06:20:06.084Z,91.50
2022-10-04T06:22:34.490Z,92.00
2022-10-04T06:25:10.190Z,92.22
2022-10-04T06:28:18.156Z,89.83
2022-10-04T06:30:54.466Z,90.56
2022-10-04T06:33:31.792Z,90.75
2022-10-04T06:36:18.867Z,91.32
2022-10-04T06:39:03.426Z,90.02
2022-10-04T06:41:44.905Z,91.55
2022-10-04T06:44:37.792Z,88.86
2022-10-04T06:47:44.595Z,89.18
2022-10-04T06:50:31.200Z,89.40
2022-10-04T06:53:05.922Z,89.31
2022-10-04T06:55:55.407Z,88.30
2022-10-04T06:58:46.718Z,87.76
2022-10-04T07:01:36.324Z,84.30
2022-10-04T07:04:13.458Z,87.56
2022-10-04T07:07:21.756Z,89.87
2022-10-04T07:09:58.572Z,88.44
2022-10-04T07:12:28.904Z,88.57
2022-10-04T07:15:02.017Z,87.83
2022-10-04T07:17:41.588Z,88.43
2022-10-04T07:20:23.330Z,85.57
2022-10-04T07:23:04.200Z,85.04
2022-10-04T07:25:53.645Z,86.71
2022-10-04T07:28:51.783Z,87.50
2022-10-04T07:31:29.068Z,87.20
2022-10-04T07:34:04.544Z,87.57
2022-10-04T07:36:41.982Z,88.25
2022-10-04T07:39:33.437Z,87.31
2022-10-04T07:42:37.597Z,85.07
2022-10-04T07:45:33.609Z,87.21
2022-10-04T07:48:18.756Z,87.40
2022-10-04T07:50:59.503Z,84.92
2022-10-04T07:54:11.305Z,87.31
2022-10-04T07:56:59.431Z,85.37
2022-10-04T08:00:01.081Z,87.05
2022-10-04T08:02:51.149Z,86.98
2022-10-04T08:05:22.993Z,89.64
2022-10-04T08:08:20.680Z,90.29
2022-10-04T08:11:01.166Z,90.71
2022-10-04T08:13:44.084Z,91.56
2022-10-04T08:16:36.342Z,91.43
2022-10-04T08:19:27.852Z,89.92
2022-10-04T08:22:05.848Z,89.99
2022-10-04T08:25:12.422Z,90.52
2022-10-04T08:28:39.626Z,89.87
2022-10-04T08:31:25.815Z,90.09
2022-10-04T08:34:30.117Z,90.59
2022-10-04T08:37:23.138Z,90.29
2022-10-04T08:40:13.452Z,91.37
2022-10-04T08:43:15.224Z,90.61
2022-10-04T08:46:01.751Z,88.39
2022-10-04T08:49:09.405Z,89.77
2022-10-04T08:52:08.096Z,90.96
2022-10-04T08:55:09.302Z,90.76
2022-10-04T08:58:12.677Z,91.98
2022-10-04T09:00:57.744Z,91.58
2022-10-04T09:03:38.112Z,91.68
2022-10-04T09:06:11.795Z,92.36
2022-10-04T09:08:57.948Z,92.77
2022-10-04T09:11:44.804Z,91.77
2022-10-04T09:15:06.788Z,90.60
2022-10-04T09:18:22.060Z,90.79
2022-10-04T09:20:59.989Z,92.03
2022-10-04T09:23:40.236Z,92.58
2022-10-04T09:26:14.293Z,93.40
2022-10-04T09:29:11.986Z,93.88
2022-10-04T09:31:58.133Z,93.23
2022-10-04T09:34:54.190Z,91.16
2022-10-04T09:37:44.454Z,90.17
2022-10-04T09:40:49.949Z,90.29
2022-10-04T09:43:49.256Z,89.87
2022-10-04T09:46:37.888Z,91.35
2022-10-04T09:49:09.785Z,91.82
2022-10-04T09:51:54.368Z,92.04
2022-10-04T09:54:22.791Z,90.91
2022-10-04T09:57:17.057Z,91.39
2022-10-04T10:00:03.355Z,92.91
2022-10-04T10:03:18.408Z,91.21
2022-10-04T10:05:56.858Z,92.75
2022-10-04T10:08:37.763Z,93.35
2022-10-04T10:11:27.018Z,92.54
2022-10-04T10:14:32.391Z,92.66
2022-10-04T10:17:30.260Z,93.89
2022-10-04T10:20:10.951Z,94.40
2022-10-04T10:23:03.861Z,95.42
2022-10-04T10:26:05.545Z,96.28
2022-10-04T10:29:07.905Z,96.56
2022-10-04T10:32:16.096Z,96.34
2022-10-04T10:35:05.701Z,97.29
2022-10-04T10:38:07.746Z,97.59
2022-10-04T10:40:38.740Z,97.35
2022-10-04T10:43:21.792Z,97.45
2022-10-04T10:46:07.748Z,98.32
2022-10-04T10:49:22.105Z,99.03
2022-10-04T10:52:35.113Z,99.88
2022-10-04T10:55:07.056Z,100.00
2022-10-04T10:58:02.495Z,99.80
2022-10-04T11:00:58.315Z,99.87
2022-10-04T11:03:54.254Z,100.00
2022-10-04T11:06:59.890Z,100.00
2022-10-04T11:09:50.412Z,99.96
2022-10-04T11:12:35.590Z,100.00
2022-10-04T11:15:45.194Z,100.00
2022-10-04T11:18:19.691Z,100.00
2022-10-04T11:21:08.805Z,100.00
2022-10-04T11:24:25.695Z,100.00
2022-10-04T11:27:02.955Z,100.00
2022-10-04T11:29:56.435Z,100.00
2022-10-04T11:32:46.477Z,100.00
2022-10-04T11:35:36.469Z,100.00
2022-10-04T11:38:28.382Z,100.00
2022-10-04T11:41:08.959Z,99.87
2022-10-04T11:43:55.915Z,100.00
2022-10-04T11:46:37.422Z,99.90
2022-10-04T11:49:36.641Z,100.00
2022-10-04T11:52:26.179Z,99.79
2022-10-04T11:55:19.157Z,99.99
2022-10-04T11:57:59.541Z,100.00
2022-10-04T12:00:50.695Z,100.00
2022-10-04T12:03:43.438Z,100.00
2022-10-04T12:06:36.698Z,99.90
2022-10-04T12:09:15.955Z,99.69
2022-10-04T12:12:26.681Z,99.82
2022-10-04T12:15:19.921Z,99.83
2022-10-04T12:18:07.234Z,100.00
2022-10-04T12:20:57.854Z,100.00
2022-10-04T12:23:42.232Z,100.00
2022-10-04T12:26:19.305Z,100.00
2022-10-04T12:29:07.646Z,100.00
2022-10-04T12:31:56.168Z,100.00
2022-10-04T12:34:48.453Z,100.00
2022-10-04T12:37:45.052Z,100.00
2022-10-04T12:40:25.380Z,100.00
2022-10-04T12:43:39.401Z,99.75
2022-10-04T12:46:30.923Z,97.04
2022-10-04T12:49:17.301Z,94.93
2022-10-04T12:51:45.743Z,94.03
2022-10-04T12:54:34.356Z,93.68
2022-10-04T12:57:36.842Z,92.61
2022-10-04T13:00:16.816Z,96.15
2022-10-04T13:02:56.839Z,97.08
2022-10-04T13:05:33.497Z,96.87
2022-10-04T13:08:22.794Z,97.88
2022-10-04T13:11:35.191Z,99.32
2022-10-04T13:14:09.622Z,100.00
2022-10-04T13:19:55.976Z,100.00
2022-10-04T13:22:56.901Z,100.00
2022-10-04T13:25:53.073Z,100.00
2022-10-04T13:29:09.142Z,100.00
2022-10-04T13:31:45.949Z,100.00
2022-10-04T13:34:49.509Z,100.00
2022-10-04T13:37:43.810Z,100.00
2022-10-04T13:40:35.441Z,100.00
2022-10-04T13:43:22.506Z,100.00
2022-10-04T13:46:27.826Z,100.00
2022-10-04T13:49:23.442Z,100.00
2022-10-04T13:52:39.002Z,100.00
2022-10-04T13:55:25.507Z,100.00
2022-10-04T13:58:20.256Z,100.00
2022-10-04T14:01:25.744Z,100.00
2022-10-04T14:04:15.486Z,100.00
2022-10-04T14:07:07.045Z,100.00
2022-10-04T14:10:25.914Z,100.00
2022-10-04T14:13:14.358Z,100.00
2022-10-04T14:16:04.238Z,100.00
2022-10-04T14:18:51.723Z,100.00
2022-10-04T14:21:41.237Z,100.00
2022-10-04T14:24:24.546Z,100.00
2022-10-04T14:27:14.237Z,100.00
2022-10-04T14:30:20.581Z,100.00
2022-10-04T14:33:01.289Z,100.00
2022-10-04T14:35:56.251Z,100.00
2022-10-04T14:38:46.571Z,100.00
2022-10-04T14:41:51.729Z,100.00
2022-10-04T14:44:35.955Z,100.00
2022-10-04T14:47:16.553Z,100.00
2022-10-04T14:50:04.056Z,100.00
2022-10-04T14:52:45.013Z,100.00
2022-10-04T14:55:34.478Z,100.00
2022-10-04T14:58:37.233Z,100.00
2022-10-04T15:01:28.067Z,100.00
2022-10-04T15:04:20.756Z,100.00
2022-10-04T15:06:53.120Z,100.00
2022-10-04T15:09:58.430Z,100.00
2022-10-04T15:12:58.607Z,100.00
2022-10-04T15:15:24.728Z,100.00
2022-10-04T15:17:53.053Z,100.00
2022-10-04T15:20:31.582Z,100.00
2022-10-04T15:23:13.646Z,100.00
2022-10-04T15:25:48.363Z,100.00
2022-10-04T15:28:29.014Z,100.00
2022-10-04T15:31:10.859Z,100.00
2022-10-04T15:33:44.983Z,100.00
2022-10-04T15:36:18.335Z,100.00
2022-10-04T15:38:58.141Z,100.00
2022-10-04T15:41:32.545Z,100.00
2022-10-04T15:44:13.670Z,100.00
2022-10-04T15:46:57.837Z,100.00
2022-10-04T15:49:53.647Z,100.00
2022-10-04T15:52:52.869Z,100.00
2022-10-04T15:55:23.038Z,100.00
2022-10-04T15:58:18.610Z,100.00
2022-10-04T16:01:03.966Z,100.00
2022-10-04T16:03:54.459Z,100.00
2022-10-04T16:06:45.835Z,100.00
2022-10-04T16:09:38.351Z,100.00
2022-10-04T16:12:44.976Z,100.00
2022-10-04T16:15:22.398Z,100.00
2022-10-04T16:18:09.039Z,100.00
2022-10-04T16:21:13.814Z,100.00
2022-10-04T16:23:44.897Z,100.00
2022-10-04T16:26:34.904Z,100.00
2022-10-04T16:29:17.019Z,100.00
2022-10-04T16:32:22.315Z,100.00
2022-10-04T16:35:38.873Z,100.00
2022-10-04T16:38:29.766Z,100.00
2022-10-04T16:41:15.759Z,100.00
2022-10-04T16:43:55.360Z,100.00
2022-10-04T16:46:27.714Z,100.00
2022-10-04T16:49:21.811Z,100.00
2022-10-04T16:52:19.263Z,100.00
2022-10-04T16:54:47.563Z,100.00
2022-10-04T16:57:28.452Z,100.00
2022-10-04T17:02:51.756Z,100.00
2022-10-04T17:05:23.658Z,100.00
2022-10-04T17:08:20.788Z,100.00
2022-10-04T17:10:51.771Z,100.00
2022-10-04T17:13:31.999Z,100.00
2022-10-04T17:16:19.462Z,100.00
2022-10-04T17:19:22.848Z,100.00
2022-10-04T17:22:07.747Z,100.00
2022-10-04T17:24:59.496Z,100.00
2022-10-04T17:27:47.482Z,100.00
2022-10-04T17:30:16.536Z,100.00
2022-10-04T17:32:56.671Z,100.00
2022-10-04T17:35:58.787Z,100.00
2022-10-04T17:38:41.507Z,100.00
2022-10-04T17:41:46.733Z,100.00
2022-10-04T17:44:39.422Z,100.00
2022-10-04T17:47:24.215Z,100.00
2022-10-04T17:50:35.320Z,100.00
2022-10-04T17:53:31.989Z,100.00
2022-10-04T17:56:03.902Z,100.00
2022-10-04T17:58:56.679Z,100.00
2022-10-04T18:01:44.361Z,100.00
2022-10-04T18:04:31.428Z,100.00
2022-10-04T18:07:22.774Z,100.00
2022-10-04T18:10:00.762Z,100.00
2022-10-04T18:12:40.182Z,100.00
2022-10-04T18:15:16.978Z,100.00
2022-10-04T18:17:51.453Z,100.00
2022-10-04T18:20:28.384Z,100.00
2022-10-04T18:23:17.994Z,100.00
2022-10-04T18:25:47.669Z,100.00
2022-10-04T18:28:22.710Z,100.00
2022-10-04T18:30:52.402Z,100.00
2022-10-04T18:33:38.347Z,100.00
2022-10-04T18:36:13.494Z,100.00
2022-10-04T18:39:01.595Z,100.00
2022-10-04T18:41:51.166Z,100.00
2022-10-04T18:44:25.166Z,100.00
2022-10-04T18:46:58.516Z,100.00
2022-10-04T18:49:34.493Z,100.00
2022-10-04T18:52:11.986Z,100.00
2022-10-04T18:55:05.408Z,100.00
2022-10-04T18:58:00.388Z,100.00
2022-10-04T19:01:07.706Z,100.00
2022-10-04T19:03:51.617Z,100.00
2022-10-04T19:06:34.098Z,100.00
2022-10-04T19:09:07.900Z,100.00
2022-10-04T19:11:49.984Z,100.00
2022-10-04T19:15:00.565Z,100.00
2022-10-04T19:17:36.615Z,100.00
2022-10-04T19:20:32.184Z,100.00
2022-10-04T19:23:06.188Z,100.00
2022-10-04T19:25:40.331Z,100.00
2022-10-04T19:28:23.734Z,100.00
2022-10-04T19:31:10.292Z,100.00
2022-10-04T19:33:51.160Z,100.00
2022-10-04T19:36:32.385Z,100.00
2022-10-04T19:39:28.334Z,100.00
2022-10-04T19:41:56.687Z,100.00
2022-10-04T19:44:53.009Z,100.00
2022-10-04T19:47:27.149Z,100.00
2022-10-04T19:49:58.140Z,100.00
2022-10-04T19:52:55.535Z,100.00
2022-10-04T19:55:28.355Z,100.00
2022-10-04T19:58:27.643Z,100.00
2022-10-04T20:00:56.326Z,100.00
2022-10-04T20:03:25.225Z,100.00
2022-10-04T20:05:55.631Z,100.00
2022-10-04T20:09:05.493Z,100.00
2022-10-04T20:11:39.915Z,100.00
2022-10-04T20:14:08.148Z,100.00
2022-10-04T20:16:49.338Z,100.00
2022-10-04T20:19:30.158Z,100.00
2022-10-04T20:22:28.443Z,100.00
2022-10-04T20:24:58.827Z,100.00
2022-10-04T20:27:31.297Z,100.00
2022-10-04T20:30:07.709Z,100.00
2022-10-04T20:32:38.744Z,100.00
2022-10-04T20:35:12.210Z,100.00
2022-10-04T20:37:46.482Z,100.00
2022-10-04T20:40:26.913Z,100.00
2022-10-04T20:43:16.805Z,100.00
2022-10-04T20:45:59.653Z,100.00
2022-10-04T20:48:34.280Z,100.00
2022-10-04T20:51:11.659Z,100.00
2022-10-04T20:53:47.834Z,100.00
2022-10-04T20:56:21.902Z,100.00
2022-10-04T20:58:57.982Z,100.00
2022-10-04T21:01:37.737Z,100.00
2022-10-04T21:04:55.467Z,100.00
2022-10-04T21:07:26.052Z,100.00
2022-10-04T21:09:55.604Z,100.00
2022-10-04T21:12:39.600Z,100.00
2022-10-04T21:15:20.291Z,100.00
2022-10-04T21:18:02.226Z,100.00
2022-10-04T21:20:53.448Z,100.00
2022-10-04T21:23:34.657Z,100.00
2022-10-04T21:26:23.980Z,100.00
2022-10-04T21:28:58.021Z,100.00
2022-10-04T21:31:26.911Z,100.00
2022-10-04T21:33:55.317Z,100.00
2022-10-04T21:36:23.771Z,100.00
2022-10-04T21:38:55.132Z,100.00
2022-10-04T21:41:23.498Z,100.00
2022-10-04T21:43:51.853Z,100.00
2022-10-04T21:46:20.794Z,100.00
2022-10-04T21:48:49.799Z,100.00
2022-10-04T21:51:18.316Z,100.00
2022-10-04T21:53:46.732Z,100.00
2022-10-04T21:56:15.210Z,100.00
2022-10-04T21:58:43.534Z,100.00
2022-10-04T22:01:12.111Z,100.00
2022-10-04T22:03:40.601Z,100.00
2022-10-04T22:06:08.976Z,100.00
2022-10-04T22:08:37.322Z,100.00
2022-10-04T22:11:05.805Z,100.00
2022-10-04T22:13:34.112Z,100.00
2022-10-04T22:16:05.942Z,100.00
2022-10-04T22:18:34.645Z,100.00
2022-10-04T22:21:03.563Z,100.00
2022-10-04T22:23:39.698Z,100.00
2022-10-04T22:26:13.072Z,100.00
2022-10-04T22:28:47.860Z,100.00
2022-10-04T22:31:18.762Z,100.00
2022-10-04T22:33:50.074Z,100.00
2022-10-04T22:36:24.787Z,100.00
2022-10-04T22:39:04.376Z,100.00
2022-10-04T22:41:39.658Z,100.00
2022-10-04T22:44:21.175Z,100.00
2022-10-04T22:46:54.254Z,100.00
2022-10-04T22:49:27.927Z,100.00
2022-10-04T22:51:58.908Z,100.00
2022-10-04T22:54:32.300Z,100.00
2022-10-04T22:57:01.074Z,100.00
2022-10-04T22:59:40.162Z,100.00
2022-10-04T23:02:18.542Z,100.00
2022-10-04T23:04:52.464Z,100.00
2022-10-04T23:07:21.689Z,100.00
2022-10-04T23:09:50.651Z,100.00
2022-10-04T23:12:19.333Z,100.00
2022-10-04T23:14:47.706Z,100.00
2022-10-04T23:17:31.884Z,100.00
2022-10-04T23:20:05.154Z,100.00
2022-10-04T23:22:33.610Z,100.00
2022-10-04T23:25:02.457Z,100.00
2022-10-04T23:27:31.238Z,100.00
2022-10-04T23:30:04.347Z,100.00
2022-10-04T23:32:33.851Z,100.00
2022-10-04T23:35:05.175Z,100.00
2022-10-04T23:37:34.169Z,100.00
2022-10-04T23:40:02.531Z,100.00
2022-10-04T23:42:34.735Z,100.00
2022-10-04T23:45:03.639Z,100.00
2022-10-04T23:47:37.618Z,100.00
2022-10-04T23:50:24.552Z,100.00
2022-10-04T23:52:58.352Z,100.00
2022-10-04T23:55:36.318Z,100.00
2022-10-04T23:58:20.559Z,100.00
